createdAt,value
2023-05-15T00:02:02.563Z,18.42
2023-05-15T00:07:05.342Z,17.40
2023-05-15T00:12:08.200Z,17.92
2023-05-15T00:17:11.001Z,19.48
2023-05-15T00:22:13.717Z,19.63
2023-05-15T00:27:16.310Z,20.23
2023-05-15T00:32:18.866Z,20.48
2023-05-15T00:37:21.543Z,17.85
2023-05-15T00:42:24.467Z,22.00
2023-05-15T00:47:27.734Z,18.08
2023-05-15T00:52:30.566Z,18.15
2023-05-15T00:57:34.598Z,21.35
2023-05-15T01:02:37.712Z,21.60
2023-05-15T01:08:15.323Z,26.73
2023-05-15T01:13:21.252Z,19.58
2023-05-15T01:18:24.096Z,19.63
2023-05-15T01:23:58.124Z,18.77
2023-05-15T01:29:41.567Z,23.02
2023-05-15T01:35:01.021Z,23.42
2023-05-15T01:40:06.025Z,22.02
2023-05-15T01:45:11.942Z,20.08
2023-05-15T01:50:17.551Z,16.85
2023-05-15T01:55:21.761Z,17.30
2023-05-15T02:00:25.018Z,23.23
2023-05-15T02:05:27.959Z,17.67
2023-05-15T02:10:32.365Z,18.38
2023-05-15T02:15:35.838Z,27.98
2023-05-15T02:20:38.587Z,17.45
2023-05-15T02:25:53.779Z,20.38
2023-05-15T02:31:05.866Z,21.15
2023-05-15T02:36:10.122Z,18.67
2023-05-15T02:41:12.826Z,17.98
2023-05-15T02:46:15.794Z,17.92
2023-05-15T02:51:18.500Z,16.30
2023-05-15T02:56:22.378Z,24.38
2023-05-15T03:01:25.112Z,27.27
2023-05-15T03:06:27.955Z,23.73
2023-05-15T03:11:31.886Z,36.25
2023-05-15T03:16:36.996Z,47.08
2023-05-15T03:21:41.055Z,39.83
2023-05-15T03:26:45.245Z,34.10
2023-05-15T03:31:48.201Z,28.35
2023-05-15T03:36:51.191Z,29.45
2023-05-15T03:41:53.922Z,31.48
2023-05-15T03:46:58.520Z,22.27
2023-05-15T03:52:01.442Z,23.10
2023-05-15T03:57:04.855Z,28.80
2023-05-15T04:02:07.650Z,29.52
2023-05-15T04:07:10.350Z,41.08
2023-05-15T04:12:13.041Z,38.75
2023-05-15T04:17:15.621Z,45.45
2023-05-15T04:22:18.513Z,57.55
2023-05-15T04:27:21.388Z,60.25
2023-05-15T04:32:24.091Z,68.55
2023-05-15T04:37:30.080Z,87.95
2023-05-15T04:42:32.717Z,52.72
2023-05-15T04:47:36.808Z,78.38
2023-05-15T04:52:43.281Z,85.40
2023-05-15T04:57:48.712Z,79.90
2023-05-15T05:02:51.758Z,82.30
2023-05-15T05:07:54.538Z,86.47
2023-05-15T05:12:57.229Z,85.38
2023-05-15T05:18:02.569Z,82.07
2023-05-15T05:23:05.446Z,63.22
2023-05-15T05:28:07.976Z,71.03
2023-05-15T05:33:10.800Z,62.90
2023-05-15T05:38:13.803Z,58.53
2023-05-15T05:43:16.494Z,58.50
2023-05-15T05:48:19.344Z,53.40
2023-05-15T05:53:21.952Z,48.90
2023-05-15T05:58:25.974Z,57.90
2023-05-15T06:03:29.154Z,53.60
2023-05-15T06:08:34.346Z,53.83
2023-05-15T06:13:37.735Z,55.08
2023-05-15T06:18:40.576Z,58.38
2023-05-15T06:23:43.468Z,52.95
2023-05-15T06:28:46.357Z,48.20
2023-05-15T06:33:49.607Z,39.67
2023-05-15T06:38:52.252Z,47.25
2023-05-15T06:43:55.381Z,41.13
2023-05-15T06:48:58.015Z,27.95
2023-05-15T06:54:00.717Z,30.85
2023-05-15T06:59:03.330Z,30.55
2023-05-15T07:04:06.481Z,30.27
2023-05-15T07:09:09.594Z,25.67
2023-05-15T07:14:14.639Z,27.17
2023-05-15T07:19:22.801Z,24.90
2023-05-15T07:24:25.689Z,22.73
2023-05-15T07:29:28.471Z,23.27
2023-05-15T07:34:36.621Z,24.48
2023-05-15T07:39:39.653Z,23.00
2023-05-15T07:44:44.639Z,24.77
2023-05-15T07:49:48.159Z,20.05
2023-05-15T07:54:51.223Z,23.13
2023-05-15T07:59:54.064Z,30.67
2023-05-15T08:04:56.733Z,25.90
2023-05-15T08:09:59.518Z,20.92
2023-05-15T08:15:03.464Z,31.98
2023-05-15T08:25:09.335Z,31.03
2023-05-15T08:30:12.606Z,28.37
2023-05-15T08:35:15.491Z,23.27
2023-05-15T08:40:25.663Z,28.97
2023-05-15T08:45:37.556Z,30.38
2023-05-15T08:50:42.006Z,28.63
2023-05-15T08:55:44.828Z,27.45
2023-05-15T09:00:47.824Z,31.30
2023-05-15T09:05:53.291Z,30.75
2023-05-15T09:10:56.933Z,22.08
2023-05-15T09:16:00.036Z,24.05
2023-05-15T09:21:31.615Z,19.13
2023-05-15T09:26:34.177Z,20.30
2023-05-15T09:31:37.030Z,19.90
2023-05-15T09:36:44.371Z,25.48
2023-05-15T09:41:47.126Z,22.67
2023-05-15T09:46:51.163Z,16.77
2023-05-15T09:51:55.229Z,19.25
2023-05-15T09:57:11.570Z,27.85
2023-05-15T10:02:32.684Z,23.90
2023-05-15T10:07:36.440Z,27.92
2023-05-15T10:12:39.133Z,22.55
2023-05-15T10:17:42.813Z,20.77
2023-05-15T10:22:51.635Z,27.15
2023-05-15T10:27:54.677Z,25.55
2023-05-15T10:32:58.217Z,26.65
2023-05-15T10:38:04.117Z,19.90
2023-05-15T10:43:06.970Z,24.15
2023-05-15T10:48:12.445Z,30.05
2023-05-15T10:53:16.249Z,22.05
2023-05-15T10:58:25.167Z,28.33
2023-05-15T11:03:48.855Z,24.63
2023-05-15T11:08:52.973Z,30.02
2023-05-15T11:14:08.044Z,33.88
2023-05-15T11:19:35.257Z,31.45
2023-05-15T11:25:06.015Z,35.25
2023-05-15T11:30:25.324Z,38.63
2023-05-15T11:35:28.324Z,34.22
2023-05-15T11:40:43.537Z,37.97
2023-05-15T11:45:49.038Z,35.60
2023-05-15T11:50:55.227Z,34.78
2023-05-15T11:55:58.076Z,34.08
2023-05-15T12:01:00.965Z,36.90
2023-05-15T12:06:04.156Z,37.13
2023-05-15T12:11:06.914Z,34.38
2023-05-15T12:16:09.561Z,32.13
2023-05-15T12:21:12.289Z,39.75
2023-05-15T12:26:15.019Z,37.70
2023-05-15T12:31:18.018Z,50.20
2023-05-15T12:36:21.444Z,42.40
2023-05-15T12:41:29.294Z,35.58
2023-05-15T12:46:32.444Z,43.70
2023-05-15T12:51:43.181Z,39.75
2023-05-15T12:56:47.238Z,47.50
2023-05-15T13:01:50.906Z,39.90
2023-05-15T13:06:54.601Z,38.13
2023-05-15T13:17:05.192Z,43.03
2023-05-15T13:22:10.159Z,39.20
2023-05-15T13:27:20.453Z,40.08
2023-05-15T13:32:36.658Z,35.75
2023-05-15T13:37:39.564Z,36.00
2023-05-15T13:42:43.410Z,24.67
2023-05-15T13:47:46.193Z,25.45
2023-05-15T13:52:49.283Z,24.73
2023-05-15T13:57:58.355Z,21.00
2023-05-15T14:03:04.290Z,25.38
2023-05-15T14:08:09.434Z,19.17
2023-05-15T14:13:12.345Z,19.65
2023-05-15T14:18:15.242Z,14.40
2023-05-15T14:23:23.748Z,16.23
2023-05-15T14:28:26.376Z,12.80
2023-05-15T14:33:32.915Z,15.73
2023-05-15T14:38:37.726Z,19.02
2023-05-15T14:43:44.944Z,19.15
2023-05-15T14:48:51.144Z,15.93
2023-05-15T14:53:54.755Z,14.43
2023-05-15T14:58:57.516Z,16.83
2023-05-15T15:04:00.772Z,12.93
2023-05-15T15:09:03.972Z,14.52
2023-05-15T15:14:14.754Z,12.73
2023-05-15T15:19:19.944Z,14.25
2023-05-15T15:24:23.191Z,14.57
2023-05-15T15:29:25.756Z,14.90
2023-05-15T15:34:28.468Z,12.52
2023-05-15T15:39:30.991Z,11.13
2023-05-15T15:44:34.301Z,14.23
2023-05-15T15:49:37.159Z,13.43
2023-05-15T15:54:47.228Z,15.60
2023-05-15T15:59:51.613Z,9.18
2023-05-15T16:04:54.537Z,10.23
2023-05-15T16:10:10.876Z,8.57
2023-05-15T16:15:23.470Z,10.73
2023-05-15T16:20:26.976Z,7.22
2023-05-15T16:25:29.774Z,13.15
2023-05-15T16:30:47.156Z,8.95
2023-05-15T16:35:54.660Z,9.15
2023-05-15T16:40:57.366Z,7.75
2023-05-15T16:46:02.695Z,7.28
2023-05-15T16:51:05.624Z,12.27
2023-05-15T16:56:08.441Z,7.88
2023-05-15T17:01:11.071Z,13.73
2023-05-15T17:06:13.795Z,10.10
2023-05-15T17:11:16.417Z,13.05
2023-05-15T17:16:19.199Z,13.55
2023-05-15T17:21:21.904Z,13.00
2023-05-15T17:26:24.780Z,9.70
2023-05-15T17:31:29.219Z,13.45
2023-05-15T17:36:32.403Z,9.80
2023-05-15T17:41:35.092Z,9.73
2023-05-15T17:46:37.939Z,7.63
2023-05-15T17:51:40.677Z,9.57
2023-05-15T17:56:43.533Z,10.77
2023-05-15T18:01:46.743Z,11.43
2023-05-15T18:06:49.793Z,11.10
2023-05-15T18:11:52.688Z,14.75
2023-05-15T18:16:55.641Z,13.93
2023-05-15T18:22:01.242Z,10.68
2023-05-15T18:27:04.534Z,14.93
2023-05-15T18:32:08.220Z,13.68
2023-05-15T18:37:10.955Z,9.98
2023-05-15T18:42:13.941Z,16.42
2023-05-15T18:47:16.812Z,12.10
2023-05-15T18:52:20.123Z,11.00
2023-05-15T18:57:22.833Z,11.52
2023-05-15T19:02:27.399Z,9.35
2023-05-15T19:07:30.714Z,13.50
2023-05-15T19:12:33.350Z,9.93
2023-05-15T19:17:38.128Z,9.27
2023-05-15T19:22:40.859Z,13.57
2023-05-15T19:27:43.666Z,17.23
2023-05-15T19:32:46.386Z,10.20
2023-05-15T19:37:49.046Z,13.05
2023-05-15T19:42:51.739Z,7.80
2023-05-15T19:47:54.448Z,6.80
2023-05-15T19:52:58.445Z,10.00
2023-05-15T19:58:01.299Z,10.48
2023-05-15T20:03:04.143Z,5.47
2023-05-15T20:08:09.885Z,4.03
2023-05-15T20:13:12.681Z,6.15
2023-05-15T20:18:17.692Z,7.25
2023-05-15T20:23:20.723Z,5.28
2023-05-15T20:28:25.407Z,2.30
2023-05-15T20:33:28.156Z,4.65
2023-05-15T20:38:30.933Z,7.32
2023-05-15T20:43:33.539Z,12.13
2023-05-15T20:48:36.555Z,9.25
2023-05-15T20:53:40.242Z,10.85
2023-05-15T20:58:44.340Z,6.60
2023-05-15T21:03:47.152Z,12.98
2023-05-15T21:08:50.110Z,9.52
2023-05-15T21:13:53.022Z,10.18
2023-05-15T21:18:55.864Z,9.50
2023-05-15T21:24:01.908Z,11.18
2023-05-15T21:29:09.306Z,11.13
2023-05-15T21:34:13.170Z,10.85
2023-05-15T21:39:16.155Z,10.32
2023-05-15T21:44:18.722Z,10.18
2023-05-15T21:49:21.346Z,15.27
2023-05-15T21:54:23.941Z,13.75
2023-05-15T21:59:28.716Z,16.30
2023-05-15T22:04:31.362Z,14.82
2023-05-15T22:09:34.167Z,7.15
2023-05-15T22:14:39.520Z,14.32
2023-05-15T22:19:45.831Z,20.77
2023-05-15T22:24:48.465Z,12.48
2023-05-15T22:29:51.175Z,20.98
2023-05-15T22:34:53.918Z,18.27
2023-05-15T22:39:57.641Z,16.15
2023-05-15T22:45:00.203Z,17.10
2023-05-15T22:50:02.909Z,17.23
2023-05-15T22:55:07.142Z,11.80
2023-05-15T23:00:10.693Z,17.60
2023-05-15T23:05:13.722Z,14.25
2023-05-15T23:10:16.321Z,16.73
2023-05-15T23:15:19.067Z,21.15
2023-05-15T23:20:21.969Z,9.00
2023-05-15T23:25:24.682Z,15.55
2023-05-15T23:30:27.654Z,19.10
2023-05-15T23:35:31.885Z,17.45
2023-05-15T23:40:34.655Z,13.52
2023-05-15T23:45:37.755Z,12.43
2023-05-15T23:50:41.611Z,13.75
2023-05-15T23:55:44.194Z,10.43
